CheckWX is a tool to help pilots better visualize weather data.  It is not intended as a substitute for an official pre-flight weather briefing.

20:57:09 UTC

KFTW TAF
Fort Worth Meacham International Airport
Fort Worth, Texas, USA
KFTW 221731Z 2218/2318 13008KT P6SM SCT150 BKN250 FM230800 17007KT P6SM VCSH BKN070 OVC120 FM231200 15009KT P6SM VCTS OVC050CB TEMPO 2313/2317 BKN025CB

Mar-22@
18:00 UTC

Mar-22 @ 18:00 UTC

Mar-23@
08:00 UTC

Mar-23 @ 08:00 UTC

KFTW 221731Z 2218/2318 13008KT P6SM SCT150 BKN250
Wind
  • 130° at 8 KTS
Cloud Levels
  • Scattered at 15,000' AGL
  • Broken at 25,000' AGL

Mar-23@
08:00 UTC

Mar-23 @ 08:00 UTC

Mar-23@
12:00 UTC

Mar-23 @ 12:00 UTC

FM230800 17007KT P6SM VCSH BKN070 OVC120

From

From Standard forecast or significant change

Wind
  • 170° at 7 KTS
Cloud Levels
  • Broken at 7,000' AGL
  • Overcast at 12,000' AGL

Mar-23@
12:00 UTC

Mar-23 @ 12:00 UTC

Mar-23@
18:00 UTC

Mar-23 @ 18:00 UTC

FM231200 15009KT P6SM VCTS OVC050CB

From

From Standard forecast or significant change

Wind
  • 150° at 9 KTS
Conditions
Area Thunderstorm
Cloud Levels
  • Overcast at 5,000' AGL

Mar-23@
13:00 UTC

Mar-23 @ 13:00 UTC

Mar-23@
17:00 UTC

Mar-23 @ 17:00 UTC

TEMPO 2313/2317 BKN025CB

Temporary

Temporary Changes expected for less than half the time period

Cloud Levels
  • Broken at 2,500' AGL